createdAt,value
2023-04-14T00:00:43.923Z,101000.34
2023-04-14T00:03:47.858Z,101007.31
2023-04-14T00:06:52.733Z,101001.28
2023-04-14T00:09:57.747Z,101001.28
2023-04-14T00:13:01.549Z,100996.94
2023-04-14T00:16:07.154Z,100996.97
2023-04-14T00:19:10.824Z,100992.66
2023-04-14T00:22:14.380Z,101001.34
2023-04-14T00:25:19.608Z,101010.00
2023-04-14T00:28:23.184Z,101012.56
2023-04-14T00:31:26.741Z,101019.50
2023-04-14T00:34:30.258Z,101024.75
2023-04-14T00:37:33.772Z,101018.69
2023-04-14T00:40:38.840Z,101023.00
2023-04-14T00:43:42.288Z,101028.16
2023-04-14T00:46:46.884Z,101035.97
2023-04-14T00:49:51.078Z,101026.47
2023-04-14T00:52:54.743Z,101030.78
2023-04-14T00:56:01.030Z,101031.66
2023-04-14T00:59:05.315Z,101026.44
2023-04-14T01:02:08.852Z,101031.66
2023-04-14T01:05:12.769Z,101033.38
2023-04-14T01:08:16.746Z,101032.53
2023-04-14T01:11:33.192Z,101033.41
2023-04-14T01:14:46.091Z,101036.00
2023-04-14T01:18:02.766Z,101039.47
2023-04-14T01:21:12.362Z,101034.28
2023-04-14T01:24:41.886Z,101043.78
2023-04-14T01:28:14.615Z,101039.47
2023-04-14T01:31:27.765Z,101044.66
2023-04-14T01:34:38.685Z,101042.94
2023-04-14T01:37:49.234Z,101045.50
2023-04-14T01:40:58.915Z,101047.22
2023-04-14T01:44:05.548Z,101048.94
2023-04-14T01:47:16.560Z,101048.97
2023-04-14T01:50:23.398Z,101045.50
2023-04-14T01:53:29.556Z,101045.50
2023-04-14T01:56:35.599Z,101048.94
2023-04-14T01:59:42.640Z,101046.34
2023-04-14T02:02:52.372Z,101044.63
2023-04-14T02:05:57.306Z,101053.22
2023-04-14T02:09:05.688Z,101050.63
2023-04-14T02:12:12.973Z,101049.72
2023-04-14T02:15:18.815Z,101048.03
2023-04-14T02:18:24.918Z,101052.34
2023-04-14T02:21:31.123Z,101052.34
2023-04-14T02:24:34.860Z,101045.44
2023-04-14T02:27:49.423Z,101047.09
2023-04-14T02:30:57.527Z,101060.88
2023-04-14T02:34:07.089Z,101056.53
2023-04-14T02:37:19.686Z,101069.47
2023-04-14T02:40:27.782Z,101071.19
2023-04-14T02:43:37.925Z,101069.41
2023-04-14T02:46:49.934Z,101069.38
2023-04-14T02:49:57.812Z,101073.63
2023-04-14T02:53:04.084Z,101081.38
2023-04-14T02:56:09.420Z,101089.19
2023-04-14T02:59:14.048Z,101091.84
2023-04-14T03:02:19.370Z,101090.16
2023-04-14T03:05:26.374Z,101083.25
2023-04-14T03:08:30.371Z,101085.00
2023-04-14T03:11:36.453Z,101086.66
2023-04-14T03:14:42.129Z,101090.09
2023-04-14T03:17:48.274Z,101090.94
2023-04-14T03:20:55.945Z,101100.44
2023-04-14T03:24:01.315Z,101086.59
2023-04-14T03:27:12.223Z,101090.09
2023-04-14T03:30:18.941Z,101090.00
2023-04-14T03:33:27.903Z,101087.41
2023-04-14T03:36:36.635Z,101090.84
2023-04-14T03:39:43.062Z,101088.28
2023-04-14T03:42:48.779Z,101084.84
2023-04-14T03:45:52.413Z,101093.53
2023-04-14T03:49:01.816Z,101094.41
2023-04-14T03:52:13.318Z,101095.34
2023-04-14T03:55:19.464Z,101097.94
2023-04-14T03:58:24.203Z,101110.03
2023-04-14T04:01:28.836Z,101115.06
2023-04-14T04:04:34.796Z,101112.44
2023-04-14T04:07:42.692Z,101118.44
2023-04-14T04:10:49.819Z,101108.94
2023-04-14T04:13:55.990Z,101108.91
2023-04-14T04:17:06.966Z,101114.03
2023-04-14T04:20:16.416Z,101113.19
2023-04-14T04:23:23.031Z,101109.75
2023-04-14T04:26:27.641Z,101115.78
2023-04-14T04:29:31.660Z,101116.66
2023-04-14T04:32:35.557Z,101112.38
2023-04-14T04:35:41.127Z,101117.53
2023-04-14T04:38:46.278Z,101124.44
2023-04-14T04:41:51.971Z,101130.41
2023-04-14T04:44:56.179Z,101132.91
2023-04-14T04:47:59.955Z,101137.97
2023-04-14T04:51:03.622Z,101146.50
2023-04-14T04:54:08.560Z,101142.22
2023-04-14T04:57:12.395Z,101139.59
2023-04-14T05:00:16.817Z,101128.47
2023-04-14T05:03:20.449Z,101133.72
2023-04-14T05:06:24.197Z,101137.03
2023-04-14T05:09:29.203Z,101136.03
2023-04-14T05:12:32.831Z,101137.78
2023-04-14T05:15:36.438Z,101132.69
2023-04-14T05:18:40.777Z,101152.41
2023-04-14T05:21:44.237Z,101151.53
2023-04-14T05:24:52.478Z,101146.63
2023-04-14T05:27:55.989Z,101145.75
2023-04-14T05:31:01.350Z,101151.88
2023-04-14T05:34:05.101Z,101154.63
2023-04-14T05:37:08.834Z,101156.41
2023-04-14T05:40:14.819Z,101155.75
2023-04-14T05:43:18.567Z,101148.91
2023-04-14T05:46:22.116Z,101152.41
2023-04-14T05:49:25.673Z,101148.22
2023-04-14T05:52:29.120Z,101149.09
2023-04-14T05:55:34.214Z,101151.78
2023-04-14T05:58:37.729Z,101150.06
2023-04-14T06:01:41.597Z,101145.66
2023-04-14T06:04:45.255Z,101147.41
2023-04-14T06:07:48.892Z,101133.28
2023-04-14T06:10:53.892Z,101117.50
2023-04-14T06:13:57.508Z,101117.28
2023-04-14T06:17:01.103Z,101111.06
2023-04-14T06:20:04.831Z,101110.84
2023-04-14T06:23:08.329Z,101108.91
2023-04-14T06:26:13.271Z,101102.56
2023-04-14T06:29:17.286Z,101105.59
2023-04-14T06:32:21.264Z,101099.81
2023-04-14T06:35:32.967Z,101109.09
2023-04-14T06:38:37.176Z,101108.19
2023-04-14T06:41:47.179Z,101101.22
2023-04-14T06:44:53.440Z,101107.06
2023-04-14T06:47:57.213Z,101105.47
2023-04-14T06:51:00.794Z,101120.13
2023-04-14T06:54:04.575Z,101115.53
2023-04-14T06:57:09.469Z,101111.25
2023-04-14T07:00:14.807Z,101102.69
2023-04-14T07:03:19.366Z,101101.63
2023-04-14T07:06:22.998Z,101100.38
2023-04-14T07:09:26.577Z,101093.81
2023-04-14T07:12:31.580Z,101101.75
2023-04-14T07:15:35.160Z,101093.19
2023-04-14T07:18:38.714Z,101103.03
2023-04-14T07:21:42.287Z,101106.38
2023-04-14T07:24:46.009Z,101101.28
2023-04-14T07:28:02.761Z,101102.44
2023-04-14T07:31:10.767Z,101096.53
2023-04-14T07:34:14.326Z,101087.34
2023-04-14T07:37:18.454Z,101086.84
2023-04-14T07:40:22.038Z,101086.31
2023-04-14T07:43:27.408Z,101089.19
2023-04-14T07:46:31.533Z,101095.59
2023-04-14T07:49:41.978Z,101094.81
2023-04-14T07:52:45.694Z,101094.59
2023-04-14T07:55:49.969Z,101095.94
2023-04-14T07:58:54.891Z,101093.41
2023-04-14T08:01:58.698Z,101096.97
2023-04-14T08:05:02.332Z,101098.88
2023-04-14T08:08:06.376Z,101093.50
2023-04-14T08:11:10.000Z,101095.53
2023-04-14T08:14:15.057Z,101098.69
2023-04-14T08:17:25.447Z,101089.25
2023-04-14T08:20:29.203Z,101099.84
2023-04-14T08:23:32.716Z,101091.63
2023-04-14T08:26:36.408Z,101090.97
2023-04-14T08:29:41.388Z,101088.63
2023-04-14T08:32:44.966Z,101086.63
2023-04-14T08:35:58.910Z,101083.69
2023-04-14T08:39:04.834Z,101089.16
2023-04-14T08:42:10.232Z,101092.06
2023-04-14T08:45:15.744Z,101095.06
2023-04-14T08:48:23.021Z,101092.13
2023-04-14T08:51:36.077Z,101094.31
2023-04-14T08:54:42.193Z,101092.56
2023-04-14T08:57:47.365Z,101091.59
2023-04-14T09:00:54.886Z,101090.22
2023-04-14T09:03:59.853Z,101084.31
2023-04-14T09:07:04.753Z,101077.88
2023-04-14T09:10:12.193Z,101074.16
2023-04-14T09:13:20.989Z,101086.13
2023-04-14T09:16:27.431Z,101068.19
2023-04-14T09:19:31.481Z,101075.41
2023-04-14T09:22:35.903Z,101072.84
2023-04-14T09:25:40.787Z,101068.19
2023-04-14T09:28:44.583Z,101061.72
2023-04-14T09:31:49.765Z,101062.84
2023-04-14T09:34:56.623Z,101068.22
2023-04-14T09:38:01.951Z,101064.03
2023-04-14T09:41:08.325Z,101062.56
2023-04-14T09:44:12.064Z,101066.41
2023-04-14T09:47:21.478Z,101074.69
2023-04-14T09:50:25.262Z,101071.06
2023-04-14T09:53:30.746Z,101061.47
2023-04-14T09:56:34.410Z,101064.38
2023-04-14T09:59:40.419Z,101063.09
2023-04-14T10:02:55.827Z,101065.06
2023-04-14T10:05:59.816Z,101058.75
2023-04-14T10:09:04.455Z,101069.16
2023-04-14T10:12:10.652Z,101057.81
2023-04-14T10:15:30.134Z,101056.25
2023-04-14T10:18:35.329Z,101057.66
2023-04-14T10:21:39.320Z,101047.72
2023-04-14T10:24:43.647Z,101043.84
2023-04-14T10:27:47.897Z,101047.81
2023-04-14T10:30:54.372Z,101030.53
2023-04-14T10:33:59.509Z,101040.81
2023-04-14T10:37:16.306Z,101031.47
2023-04-14T10:40:22.241Z,101020.88
2023-04-14T10:43:30.040Z,101019.56
2023-04-14T10:46:44.976Z,101014.59
2023-04-14T10:49:50.719Z,101014.06
2023-04-14T10:52:56.792Z,101007.56
2023-04-14T10:56:06.083Z,101001.53
2023-04-14T10:59:13.491Z,100999.84
2023-04-14T11:02:31.221Z,101007.09
2023-04-14T11:05:37.841Z,101004.88
2023-04-14T11:08:52.652Z,100997.28
2023-04-14T11:11:58.334Z,100996.09
2023-04-14T11:15:05.568Z,100991.50
2023-04-14T11:18:15.053Z,101000.66
2023-04-14T11:21:21.835Z,100996.63
2023-04-14T11:24:26.662Z,101001.56
2023-04-14T11:27:33.512Z,100997.53
2023-04-14T11:30:37.732Z,100991.41
2023-04-14T11:33:42.920Z,100994.25
2023-04-14T11:36:48.519Z,100988.75
2023-04-14T11:39:53.157Z,100983.28
2023-04-14T11:43:00.850Z,100981.22
2023-04-14T11:46:08.466Z,100976.53
2023-04-14T11:49:12.972Z,100966.69
2023-04-14T11:52:20.967Z,100974.81
2023-04-14T11:55:24.836Z,100974.53
2023-04-14T11:58:30.416Z,100977.78
2023-04-14T12:01:34.348Z,100970.69
2023-04-14T12:04:38.317Z,100978.34
2023-04-14T12:07:45.879Z,100970.19
2023-04-14T12:10:51.743Z,100970.03
2023-04-14T12:13:55.569Z,100978.03
2023-04-14T12:16:59.425Z,100972.97
2023-04-14T12:20:04.003Z,100975.19
2023-04-14T12:23:09.293Z,100972.81
2023-04-14T12:26:13.502Z,100970.09
2023-04-14T12:29:17.210Z,100968.91
2023-04-14T12:32:22.294Z,100968.00
2023-04-14T12:35:26.421Z,100967.72
2023-04-14T12:38:31.594Z,100970.22
2023-04-14T12:41:40.233Z,100958.00
2023-04-14T12:44:55.148Z,100951.97
2023-04-14T12:48:00.824Z,100960.28
2023-04-14T12:51:11.736Z,100957.09
2023-04-14T12:54:17.694Z,100953.34
2023-04-14T12:57:22.703Z,100943.06
2023-04-14T13:00:35.915Z,100944.38
2023-04-14T13:03:46.077Z,100944.78
2023-04-14T13:06:49.914Z,100944.69
2023-04-14T13:09:54.996Z,100939.03
2023-04-14T13:12:58.662Z,100944.28
2023-04-14T13:16:15.119Z,100935.53
2023-04-14T13:19:20.410Z,100935.66
2023-04-14T13:22:24.300Z,100938.22
2023-04-14T13:25:29.270Z,100927.31
2023-04-14T13:28:33.002Z,100930.44
2023-04-14T13:31:37.024Z,100927.72
2023-04-14T13:34:41.907Z,100919.31
2023-04-14T13:37:45.385Z,100917.41
2023-04-14T13:40:50.448Z,100911.75
2023-04-14T13:43:54.280Z,100911.91
2023-04-14T13:46:57.756Z,100909.78
2023-04-14T13:50:01.455Z,100906.63
2023-04-14T13:53:05.646Z,100903.59
2023-04-14T13:56:10.818Z,100901.50
2023-04-14T13:59:16.245Z,100899.25
2023-04-14T14:02:19.784Z,100897.31
2023-04-14T14:05:23.382Z,100897.91
2023-04-14T14:08:26.931Z,100899.81
2023-04-14T14:11:31.924Z,100892.34
2023-04-14T14:14:35.732Z,100896.16
2023-04-14T14:17:39.292Z,100891.47
2023-04-14T14:20:42.940Z,100887.41
2023-04-14T14:23:46.653Z,100891.28
2023-04-14T14:26:51.686Z,100879.19
2023-04-14T14:29:55.200Z,100875.22
2023-04-14T14:32:58.744Z,100869.09
2023-04-14T14:36:02.729Z,100870.16
2023-04-14T14:39:06.317Z,100878.22
2023-04-14T14:42:11.686Z,100878.00
2023-04-14T14:45:15.432Z,100871.44
2023-04-14T14:48:22.446Z,100869.72
2023-04-14T14:51:27.726Z,100877.28
2023-04-14T14:54:31.334Z,100864.53
2023-04-14T14:57:36.351Z,100874.50
2023-04-14T15:00:40.330Z,100886.19
2023-04-14T15:03:44.627Z,100880.84
2023-04-14T15:06:48.279Z,100882.53
2023-04-14T15:09:52.361Z,100882.75
2023-04-14T15:12:57.660Z,100884.09
2023-04-14T15:16:01.225Z,100875.84
2023-04-14T15:19:05.271Z,100885.53
2023-04-14T15:22:09.648Z,100872.44
2023-04-14T15:25:13.213Z,100871.03
2023-04-14T15:28:18.204Z,100871.94
2023-04-14T15:31:21.772Z,100875.44
2023-04-14T15:34:26.086Z,100872.44
2023-04-14T15:37:29.755Z,100882.69
2023-04-14T15:40:33.296Z,100876.00
2023-04-14T15:43:38.240Z,100870.97
2023-04-14T15:46:41.748Z,100882.28
2023-04-14T15:49:48.471Z,100877.56
2023-04-14T15:52:55.879Z,100872.59
2023-04-14T15:55:59.583Z,100868.47
2023-04-14T15:59:04.688Z,100862.47
2023-04-14T16:02:08.762Z,100870.16
2023-04-14T16:05:12.915Z,100876.75
2023-04-14T16:08:17.014Z,100867.78
2023-04-14T16:11:20.652Z,100867.81
2023-04-14T16:14:25.499Z,100874.72
2023-04-14T16:17:29.080Z,100876.88
2023-04-14T16:20:32.637Z,100876.34
2023-04-14T16:23:36.292Z,100877.22
2023-04-14T16:26:39.817Z,100882.69
2023-04-14T16:29:44.912Z,100884.13
2023-04-14T16:32:48.408Z,100883.22
2023-04-14T16:35:51.988Z,100874.31
2023-04-14T16:38:55.745Z,100882.56
2023-04-14T16:42:02.110Z,100876.22
2023-04-14T16:45:08.866Z,100871.75
2023-04-14T16:48:12.378Z,100875.09
2023-04-14T16:51:15.935Z,100869.97
2023-04-14T16:54:19.435Z,100874.44
2023-04-14T16:57:23.165Z,100868.25
2023-04-14T17:00:28.649Z,100868.22
2023-04-14T17:03:32.529Z,100873.28
2023-04-14T17:06:36.207Z,100879.44
2023-04-14T17:09:39.705Z,100881.16
2023-04-14T17:12:43.564Z,100882.00
2023-04-14T17:15:58.970Z,100881.44
2023-04-14T17:19:11.705Z,100884.56
2023-04-14T17:22:15.586Z,100889.81
2023-04-14T17:25:20.975Z,100890.97
2023-04-14T17:28:27.333Z,100888.56
2023-04-14T17:31:33.677Z,100893.13
2023-04-14T17:34:37.722Z,100895.31
2023-04-14T17:37:41.659Z,100898.78
2023-04-14T17:40:45.204Z,100901.53
2023-04-14T17:43:48.827Z,100903.56
2023-04-14T17:46:54.229Z,100909.84
2023-04-14T17:49:57.858Z,100913.63
2023-04-14T17:53:01.819Z,100919.00
2023-04-14T17:56:06.162Z,100921.69
2023-04-14T17:59:11.028Z,100920.09
2023-04-14T18:02:16.828Z,100932.47
2023-04-14T18:05:20.940Z,100928.25
2023-04-14T18:08:24.752Z,100938.03
2023-04-14T18:11:29.836Z,100938.22
2023-04-14T18:14:34.434Z,100943.72
2023-04-14T18:17:39.427Z,100948.56
2023-04-14T18:20:46.814Z,100949.81
2023-04-14T18:27:00.266Z,100957.66
2023-04-14T18:30:59.565Z,100943.25
2023-04-14T18:34:09.373Z,100956.72
2023-04-14T18:37:12.893Z,100954.47
2023-04-14T18:40:22.695Z,100955.66
2023-04-14T18:43:30.254Z,100959.44
2023-04-14T18:46:37.867Z,100969.28
2023-04-14T18:49:42.997Z,100979.16
2023-04-14T18:52:46.611Z,100976.72
2023-04-14T18:55:51.351Z,100982.19
2023-04-14T18:58:55.939Z,100993.81
2023-04-14T19:01:59.922Z,100994.09
2023-04-14T19:05:05.872Z,100999.50
2023-04-14T19:08:09.840Z,101000.47
2023-04-14T19:11:16.211Z,101008.69
2023-04-14T19:14:25.335Z,101013.31
2023-04-14T19:17:29.235Z,101017.78
2023-04-14T19:20:34.695Z,101013.59
2023-04-14T19:23:40.931Z,101015.44
2023-04-14T19:26:45.228Z,101012.16
2023-04-14T19:29:49.019Z,101011.41
2023-04-14T19:32:53.516Z,101025.56
2023-04-14T19:35:58.889Z,101013.50
2023-04-14T19:39:04.149Z,101016.22
2023-04-14T19:42:08.071Z,101022.41
2023-04-14T19:45:12.389Z,101018.19
2023-04-14T19:48:23.538Z,101019.13
2023-04-14T19:51:29.376Z,101028.75
2023-04-14T19:54:32.886Z,101029.81
2023-04-14T19:57:36.580Z,101028.16
2023-04-14T20:00:41.085Z,101024.75
2023-04-14T20:04:08.297Z,101036.16
2023-04-14T20:07:10.283Z,101021.53
2023-04-14T20:10:14.410Z,101016.28
2023-04-14T20:13:19.066Z,101018.22
2023-04-14T20:16:24.602Z,101015.66
2023-04-14T20:19:28.124Z,101025.34
2023-04-14T20:22:34.265Z,101015.00
2023-04-14T20:25:38.814Z,101020.34
2023-04-14T20:28:42.838Z,101017.00
2023-04-14T20:31:46.595Z,101022.38
2023-04-14T20:34:50.053Z,101026.00
2023-04-14T20:37:55.614Z,101029.63
2023-04-14T20:40:59.265Z,101024.56
2023-04-14T20:44:03.482Z,101021.22
2023-04-14T20:47:08.353Z,101028.28
2023-04-14T20:50:12.392Z,101025.88
2023-04-14T20:53:17.951Z,101023.31
2023-04-14T20:56:22.514Z,101032.09
2023-04-14T20:59:26.277Z,101019.13
2023-04-14T21:02:29.989Z,101029.69
2023-04-14T21:05:33.842Z,101023.69
2023-04-14T21:08:40.378Z,101030.75
2023-04-14T21:11:43.888Z,101029.13
2023-04-14T21:15:44.556Z,101030.06
2023-04-14T21:18:11.932Z,101031.09
2023-04-14T21:21:15.415Z,101025.94
2023-04-14T21:24:20.372Z,101032.97
2023-04-14T21:27:23.882Z,101033.88
2023-04-14T21:30:27.630Z,101040.88
2023-04-14T21:33:32.247Z,101031.38
2023-04-14T21:36:36.290Z,101039.25
2023-04-14T21:39:42.639Z,101039.34
2023-04-14T21:42:46.183Z,101035.94
2023-04-14T21:45:50.036Z,101039.47
2023-04-14T21:48:53.743Z,101043.00
2023-04-14T21:51:57.462Z,101050.03
2023-04-14T21:55:02.400Z,101042.28
2023-04-14T21:58:06.058Z,101047.59
2023-04-14T22:01:10.377Z,101046.84
2023-04-14T22:04:22.181Z,101050.28
2023-04-14T22:07:32.459Z,101043.47
2023-04-14T22:10:41.247Z,101039.47
2023-04-14T22:13:44.703Z,101052.69
2023-04-14T22:16:48.844Z,101054.53
2023-04-14T22:19:52.551Z,101054.69
2023-04-14T22:22:56.015Z,101053.84
2023-04-14T22:26:01.042Z,101052.06
2023-04-14T22:29:05.211Z,101060.91
2023-04-14T22:32:08.774Z,101055.78
2023-04-14T22:35:12.428Z,101054.22
2023-04-14T22:38:15.931Z,101059.47
2023-04-14T22:41:21.082Z,101062.16
2023-04-14T22:44:24.587Z,101061.34
2023-04-14T22:47:28.128Z,101060.56
2023-04-14T22:50:32.044Z,101062.34
2023-04-14T22:53:36.187Z,101071.94
2023-04-14T22:56:41.250Z,101065.88
2023-04-14T22:59:44.914Z,101063.22
2023-04-14T23:02:48.980Z,101067.69
2023-04-14T23:05:52.772Z,101065.09
2023-04-14T23:08:56.273Z,101070.31
2023-04-14T23:12:02.594Z,101066.03
2023-04-14T23:15:08.137Z,101067.72
2023-04-14T23:18:11.746Z,101059.13
2023-04-14T23:21:15.572Z,101058.28
2023-04-14T23:24:19.406Z,101056.56
2023-04-14T23:27:24.339Z,101060.06
2023-04-14T23:30:28.787Z,101060.94
2023-04-14T23:33:32.318Z,101055.69
2023-04-14T23:36:37.077Z,101056.56
2023-04-14T23:39:40.759Z,101051.34
2023-04-14T23:42:45.903Z,101054.75
2023-04-14T23:45:49.449Z,101059.13
2023-04-14T23:48:53.290Z,101053.03
2023-04-14T23:51:58.295Z,101056.47
2023-04-14T23:55:02.072Z,101052.19
2023-04-14T23:58:07.004Z,101049.53
